createdAt,value
2022-11-20T00:01:35.036Z,14.98
2022-11-20T00:04:03.294Z,17.05
2022-11-20T00:06:31.885Z,15.95
2022-11-20T00:09:02.893Z,15.88
2022-11-20T00:11:32.509Z,18.02
2022-11-20T00:14:02.803Z,16.85
2022-11-20T00:16:33.647Z,15.10
2022-11-20T00:19:01.913Z,12.00
2022-11-20T00:21:31.118Z,13.07
2022-11-20T00:24:01.648Z,12.83
2022-11-20T00:26:32.489Z,17.65
2022-11-20T00:29:02.735Z,15.77
2022-11-20T00:31:34.095Z,12.55
2022-11-20T00:34:02.382Z,15.38
2022-11-20T00:36:33.900Z,12.50
2022-11-20T00:39:03.814Z,17.33
2022-11-20T00:41:32.690Z,13.13
2022-11-20T00:44:00.997Z,14.38
2022-11-20T00:46:30.180Z,13.57
2022-11-20T00:48:58.497Z,12.07
2022-11-20T00:51:28.814Z,12.48
2022-11-20T00:53:58.680Z,15.82
2022-11-20T00:56:28.674Z,13.48
2022-11-20T00:58:57.055Z,11.60
2022-11-20T01:01:26.956Z,15.23
2022-11-20T01:03:58.878Z,12.90
2022-11-20T01:06:35.063Z,17.23
2022-11-20T01:09:04.968Z,12.97
2022-11-20T01:11:37.162Z,12.38
2022-11-20T01:14:09.417Z,13.40
2022-11-20T01:16:39.438Z,12.33
2022-11-20T01:19:09.751Z,11.97
2022-11-20T01:21:40.041Z,15.73
2022-11-20T01:24:10.081Z,11.65
2022-11-20T01:26:41.742Z,10.77
2022-11-20T01:29:13.398Z,12.48
2022-11-20T01:31:41.642Z,12.13
2022-11-20T01:34:13.103Z,11.50
2022-11-20T01:36:42.612Z,14.77
2022-11-20T01:39:14.435Z,13.48
2022-11-20T01:42:08.422Z,15.57
2022-11-20T01:44:53.038Z,11.70
2022-11-20T01:47:27.870Z,13.13
2022-11-20T01:50:01.229Z,12.67
2022-11-20T01:52:35.467Z,12.88
2022-11-20T01:55:09.117Z,13.02
2022-11-20T01:57:40.909Z,13.80
2022-11-20T02:00:12.136Z,16.17
2022-11-20T02:02:43.167Z,13.85
2022-11-20T02:05:22.767Z,12.77
2022-11-20T02:07:51.065Z,15.47
2022-11-20T02:10:19.371Z,12.80
2022-11-20T02:13:06.390Z,17.58
2022-11-20T02:15:35.766Z,14.82
2022-11-20T02:18:04.177Z,18.05
2022-11-20T02:20:32.358Z,16.80
2022-11-20T02:23:05.000Z,13.57
2022-11-20T02:25:37.279Z,16.20
2022-11-20T02:28:06.061Z,13.87
2022-11-20T02:30:34.367Z,14.88
2022-11-20T02:33:02.536Z,16.63
2022-11-20T02:35:44.111Z,14.07
2022-11-20T02:38:12.715Z,12.80
2022-11-20T02:40:42.502Z,17.80
2022-11-20T02:43:11.448Z,16.98
2022-11-20T02:45:39.973Z,15.50
2022-11-20T02:48:09.815Z,13.37
2022-11-20T02:50:40.763Z,17.83
2022-11-20T02:53:09.436Z,16.70
2022-11-20T02:55:41.033Z,13.10
2022-11-20T02:58:10.787Z,14.63
2022-11-20T03:00:38.996Z,12.87
2022-11-20T03:03:07.264Z,12.52
2022-11-20T03:05:35.569Z,16.58
2022-11-20T03:08:03.729Z,11.73
2022-11-20T03:10:31.815Z,15.77
2022-11-20T03:12:59.958Z,14.65
2022-11-20T03:15:29.550Z,19.38
2022-11-20T03:17:59.132Z,12.33
2022-11-20T03:20:27.386Z,12.67
2022-11-20T03:22:56.864Z,16.90
2022-11-20T03:25:25.234Z,18.57
2022-11-20T03:27:53.519Z,17.02
2022-11-20T03:30:23.928Z,14.27
2022-11-20T03:32:57.051Z,16.73
2022-11-20T03:35:25.194Z,16.35
2022-11-20T03:37:53.379Z,20.53
2022-11-20T03:40:21.516Z,17.13
2022-11-20T03:42:49.618Z,13.17
2022-11-20T03:45:19.104Z,20.85
2022-11-20T03:47:47.902Z,16.65
2022-11-20T03:50:20.632Z,15.10
2022-11-20T03:52:48.995Z,17.33
2022-11-20T03:55:17.347Z,17.23
2022-11-20T03:57:45.462Z,13.00
2022-11-20T04:00:15.151Z,13.07
2022-11-20T04:02:43.313Z,15.07
2022-11-20T04:05:11.498Z,14.18
2022-11-20T04:07:41.214Z,12.30
2022-11-20T04:10:10.225Z,16.13
2022-11-20T04:12:38.543Z,17.00
2022-11-20T04:15:07.272Z,13.52
2022-11-20T04:17:35.471Z,17.13
2022-11-20T04:20:03.939Z,19.95
2022-11-20T04:22:32.162Z,15.43
2022-11-20T04:25:01.936Z,20.02
2022-11-20T04:27:30.140Z,13.43
2022-11-20T04:29:58.492Z,16.88
2022-11-20T04:32:26.646Z,17.35
2022-11-20T04:34:55.181Z,13.63
2022-11-20T04:37:23.338Z,14.23
2022-11-20T04:39:51.541Z,17.33
2022-11-20T04:42:33.234Z,16.67
2022-11-20T04:45:01.417Z,15.80
2022-11-20T04:47:29.681Z,20.73
2022-11-20T04:49:57.991Z,17.17
2022-11-20T04:52:26.120Z,15.18
2022-11-20T04:54:59.363Z,17.27
2022-11-20T04:57:29.115Z,13.70
2022-11-20T04:59:57.343Z,15.35
2022-11-20T05:02:25.853Z,14.02
2022-11-20T05:04:53.962Z,14.70
2022-11-20T05:07:22.115Z,16.27
2022-11-20T05:09:50.294Z,15.60
2022-11-20T05:12:18.453Z,15.80
2022-11-20T05:14:48.243Z,21.75
2022-11-20T05:17:16.491Z,17.52
2022-11-20T05:19:45.997Z,15.70
2022-11-20T05:22:15.606Z,17.48
2022-11-20T05:24:43.875Z,14.50
2022-11-20T05:27:12.164Z,13.93
2022-11-20T05:29:40.505Z,18.98
2022-11-20T05:32:10.744Z,16.33
2022-11-20T05:34:39.146Z,13.65
2022-11-20T05:37:07.338Z,14.43
2022-11-20T05:39:35.533Z,17.52
2022-11-20T05:42:20.798Z,14.13
2022-11-20T05:44:48.948Z,14.27
2022-11-20T05:47:18.740Z,17.00
2022-11-20T05:49:47.040Z,13.98
2022-11-20T05:52:15.371Z,13.35
2022-11-20T05:54:43.648Z,16.15
2022-11-20T05:57:11.939Z,13.35
2022-11-20T05:59:40.251Z,15.10
2022-11-20T06:02:08.385Z,14.77
2022-11-20T06:04:37.950Z,14.27
2022-11-20T06:07:07.940Z,14.98
2022-11-20T06:09:36.095Z,19.23
2022-11-20T06:12:04.381Z,13.80
2022-11-20T06:14:32.565Z,15.40
2022-11-20T06:17:00.993Z,13.70
2022-11-20T06:19:29.176Z,16.70
2022-11-20T06:21:58.839Z,17.63
2022-11-20T06:24:27.599Z,20.57
2022-11-20T06:26:55.687Z,16.20
2022-11-20T06:29:24.076Z,19.63
2022-11-20T06:31:52.300Z,19.17
2022-11-20T06:34:20.537Z,14.30
2022-11-20T06:36:48.697Z,17.87
2022-11-20T06:39:18.427Z,15.57
2022-11-20T06:41:46.584Z,14.90
2022-11-20T06:44:14.775Z,16.98
2022-11-20T06:46:42.892Z,18.88
2022-11-20T06:49:11.018Z,19.92
2022-11-20T06:51:39.452Z,19.10
2022-11-20T06:54:07.842Z,15.70
2022-11-20T06:56:37.693Z,15.15
2022-11-20T06:59:07.426Z,16.27
2022-11-20T07:01:36.139Z,17.20
2022-11-20T07:04:05.098Z,17.25
2022-11-20T07:06:33.770Z,16.50
2022-11-20T07:09:02.723Z,21.30
2022-11-20T07:11:30.911Z,15.93
2022-11-20T07:14:01.095Z,18.08
2022-11-20T07:16:29.357Z,18.02
2022-11-20T07:18:57.601Z,18.63
2022-11-20T07:21:25.802Z,16.35
2022-11-20T07:23:54.006Z,18.98
2022-11-20T07:26:22.633Z,20.27
2022-11-20T07:28:50.898Z,18.63
2022-11-20T07:31:20.524Z,16.15
2022-11-20T07:33:48.877Z,16.48
2022-11-20T07:36:17.062Z,15.82
2022-11-20T07:38:45.183Z,17.05
2022-11-20T07:41:13.431Z,19.63
2022-11-20T07:43:41.932Z,16.20
2022-11-20T07:46:10.153Z,17.10
2022-11-20T07:48:39.721Z,16.42
2022-11-20T07:51:08.379Z,17.90
2022-11-20T07:53:36.666Z,18.67
2022-11-20T07:56:06.146Z,17.17
2022-11-20T07:58:35.569Z,21.95
2022-11-20T08:01:08.136Z,15.90
2022-11-20T08:03:38.761Z,14.90
2022-11-20T08:06:09.919Z,15.55
2022-11-20T08:08:42.781Z,21.65
2022-11-20T08:11:25.237Z,16.83
2022-11-20T08:14:10.879Z,19.58
2022-11-20T08:16:39.173Z,19.80
2022-11-20T08:19:07.469Z,17.20
2022-11-20T08:21:38.514Z,18.67
2022-11-20T08:24:07.829Z,20.13
2022-11-20T08:26:37.861Z,19.20
2022-11-20T08:29:06.908Z,15.63
2022-11-20T08:31:35.602Z,22.30
2022-11-20T08:34:08.711Z,16.65
2022-11-20T08:36:39.201Z,17.88
2022-11-20T08:39:07.500Z,23.55
2022-11-20T08:41:37.728Z,15.57
2022-11-20T08:44:07.835Z,16.90
2022-11-20T08:46:38.134Z,17.02
2022-11-20T08:49:06.980Z,19.58
2022-11-20T08:51:35.641Z,22.88
2022-11-20T08:54:05.914Z,17.20
2022-11-20T08:56:34.370Z,17.02
2022-11-20T08:59:23.045Z,19.08
2022-11-20T09:01:51.105Z,16.38
2022-11-20T09:04:19.357Z,17.35
2022-11-20T09:06:51.888Z,18.27
2022-11-20T09:09:22.673Z,16.85
2022-11-20T09:11:52.217Z,20.88
2022-11-20T09:14:20.484Z,33.00
2022-11-20T09:16:48.722Z,19.65
2022-11-20T09:22:05.540Z,17.67
2022-11-20T09:24:35.341Z,21.67
2022-11-20T09:27:06.986Z,26.05
2022-11-20T09:29:35.234Z,16.85
2022-11-20T09:32:03.345Z,21.80
2022-11-20T09:34:31.711Z,15.77
2022-11-20T09:37:02.934Z,16.45
2022-11-20T09:39:39.993Z,15.77
2022-11-20T09:42:34.793Z,20.45
2022-11-20T09:45:21.353Z,20.90
2022-11-20T09:48:05.683Z,19.80
2022-11-20T09:50:38.160Z,17.48
2022-11-20T09:53:25.916Z,21.02
2022-11-20T09:55:57.152Z,19.13
2022-11-20T09:58:33.219Z,19.48
2022-11-20T10:01:08.307Z,18.48
2022-11-20T10:03:43.609Z,20.52
2022-11-20T10:06:18.086Z,20.40
2022-11-20T10:08:53.719Z,18.67
2022-11-20T10:11:33.407Z,25.90
2022-11-20T10:14:18.450Z,18.40
2022-11-20T10:16:58.344Z,19.27
2022-11-20T10:19:49.496Z,21.75
2022-11-20T10:22:30.019Z,24.23
2022-11-20T10:25:03.395Z,29.55
2022-11-20T10:27:58.874Z,22.20
2022-11-20T10:30:27.244Z,20.17
2022-11-20T10:33:00.845Z,22.83
2022-11-20T10:35:35.743Z,21.80
2022-11-20T10:38:07.712Z,25.45
2022-11-20T10:40:41.063Z,22.05
2022-11-20T10:43:16.405Z,21.55
2022-11-20T10:45:56.412Z,18.50
2022-11-20T10:48:26.581Z,21.23
2022-11-20T10:51:13.102Z,18.90
2022-11-20T10:53:53.606Z,24.23
2022-11-20T10:56:27.845Z,19.10
2022-11-20T10:59:06.953Z,21.08
2022-11-20T11:01:42.814Z,23.25
2022-11-20T11:04:29.026Z,20.30
2022-11-20T11:07:03.326Z,25.23
2022-11-20T11:09:36.694Z,19.73
2022-11-20T11:12:09.328Z,20.85
2022-11-20T11:14:53.347Z,17.65
2022-11-20T11:17:28.290Z,20.77
2022-11-20T11:20:01.374Z,20.70
2022-11-20T11:22:31.325Z,17.48
2022-11-20T11:24:59.788Z,22.63
2022-11-20T11:27:28.583Z,23.85
2022-11-20T11:30:16.518Z,23.00
2022-11-20T11:32:45.015Z,20.20
2022-11-20T11:35:25.727Z,25.02
2022-11-20T11:37:56.655Z,28.77
2022-11-20T11:40:28.113Z,17.65
2022-11-20T11:42:59.916Z,22.20
2022-11-20T11:45:29.403Z,19.73
2022-11-20T11:48:00.502Z,18.98
2022-11-20T11:50:30.065Z,22.92
2022-11-20T11:53:10.320Z,17.60
2022-11-20T11:55:44.559Z,23.13
2022-11-20T11:58:21.114Z,18.85
2022-11-20T12:00:59.333Z,22.70
2022-11-20T12:03:31.718Z,21.70
2022-11-20T12:06:04.028Z,24.77
2022-11-20T12:08:41.721Z,23.02
2022-11-20T12:11:21.243Z,18.70
2022-11-20T12:13:55.547Z,18.33
2022-11-20T12:16:25.679Z,17.15
2022-11-20T12:18:55.240Z,18.25
2022-11-20T12:21:33.565Z,17.45
2022-11-20T12:24:27.675Z,18.75
2022-11-20T12:27:11.904Z,22.13
2022-11-20T12:29:52.095Z,15.93
2022-11-20T12:32:42.848Z,22.27
2022-11-20T12:35:26.438Z,21.02
2022-11-20T12:38:10.423Z,38.28
2022-11-20T12:40:47.186Z,19.13
2022-11-20T12:43:38.958Z,21.52
2022-11-20T12:46:19.050Z,30.35
2022-11-20T12:49:24.915Z,16.88
2022-11-20T12:52:27.622Z,16.70
2022-11-20T12:55:25.898Z,16.00
2022-11-20T12:57:59.474Z,17.67
2022-11-20T13:00:27.836Z,18.77
2022-11-20T13:03:25.646Z,19.33
2022-11-20T13:06:01.827Z,21.77
2022-11-20T13:08:35.169Z,16.27
2022-11-20T13:11:09.959Z,14.63
2022-11-20T13:13:46.681Z,18.08
2022-11-20T13:16:21.377Z,17.45
2022-11-20T13:18:49.655Z,16.73
2022-11-20T13:21:39.093Z,17.27
2022-11-20T13:24:07.719Z,18.23
2022-11-20T13:26:35.939Z,18.55
2022-11-20T13:29:12.475Z,17.02
2022-11-20T13:31:45.346Z,17.45
2022-11-20T13:34:24.027Z,16.95
2022-11-20T13:36:56.561Z,16.35
2022-11-20T13:39:28.633Z,19.83
2022-11-20T13:41:58.870Z,16.33
2022-11-20T13:44:32.070Z,14.82
2022-11-20T13:47:00.223Z,19.08
2022-11-20T13:49:32.286Z,14.77
2022-11-20T13:52:21.669Z,15.52
2022-11-20T13:55:06.709Z,18.63
2022-11-20T13:57:50.885Z,17.23
2022-11-20T14:00:20.838Z,22.25
2022-11-20T14:03:01.832Z,17.42
2022-11-20T14:05:33.023Z,16.50
2022-11-20T14:08:06.206Z,23.98
2022-11-20T14:10:34.649Z,14.23
2022-11-20T14:13:13.661Z,15.45
2022-11-20T14:15:45.188Z,22.88
2022-11-20T14:18:15.938Z,16.77
2022-11-20T14:20:45.231Z,17.67
2022-11-20T14:23:14.955Z,18.38
2022-11-20T14:25:45.549Z,16.80
2022-11-20T14:28:22.442Z,16.92
2022-11-20T14:30:51.341Z,19.80
2022-11-20T14:33:20.929Z,18.33
2022-11-20T14:35:51.690Z,16.08
2022-11-20T14:38:24.453Z,17.80
2022-11-20T14:40:53.034Z,17.52
2022-11-20T14:43:24.703Z,20.20
2022-11-20T14:45:59.698Z,21.30
2022-11-20T14:48:32.927Z,19.48
2022-11-20T14:51:01.340Z,21.25
2022-11-20T14:53:31.467Z,19.80
2022-11-20T14:56:01.783Z,20.75
2022-11-20T14:58:32.836Z,17.35
2022-11-20T15:01:02.748Z,20.45
2022-11-20T15:03:35.196Z,20.98
2022-11-20T15:06:03.946Z,19.20
2022-11-20T15:08:33.796Z,18.13
2022-11-20T15:11:02.245Z,18.73
2022-11-20T15:13:34.872Z,25.10
2022-11-20T15:16:04.480Z,17.05
2022-11-20T15:18:35.155Z,21.05
2022-11-20T15:21:05.868Z,22.08
2022-11-20T15:23:36.691Z,17.95
2022-11-20T15:26:06.998Z,20.45
2022-11-20T15:28:38.203Z,18.40
2022-11-20T15:31:07.693Z,20.98
2022-11-20T15:33:36.138Z,18.27
2022-11-20T15:36:05.117Z,21.83
2022-11-20T15:38:34.999Z,25.92
2022-11-20T15:41:03.185Z,23.83
2022-11-20T15:43:31.401Z,21.50
2022-11-20T15:46:02.473Z,28.52
2022-11-20T15:48:33.948Z,30.15
2022-11-20T15:51:05.948Z,22.38
2022-11-20T15:53:35.697Z,19.15
2022-11-20T15:56:03.917Z,26.98
2022-11-20T15:58:32.488Z,22.45
2022-11-20T16:01:00.649Z,20.83
2022-11-20T16:03:28.973Z,26.38
2022-11-20T16:05:57.083Z,21.67
2022-11-20T16:08:25.358Z,27.10
2022-11-20T16:10:54.978Z,41.65
2022-11-20T16:13:40.638Z,27.35
2022-11-20T16:16:13.077Z,23.55
2022-11-20T16:18:41.219Z,29.52
2022-11-20T16:21:13.575Z,20.58
2022-11-20T16:23:42.057Z,26.40
2022-11-20T16:26:17.791Z,25.60
2022-11-20T16:28:46.089Z,26.52
2022-11-20T16:31:15.888Z,25.48
2022-11-20T16:33:44.123Z,24.83
2022-11-20T16:36:14.001Z,20.05
2022-11-20T16:38:42.259Z,20.27
2022-11-20T16:41:14.476Z,28.70
2022-11-20T16:43:52.129Z,42.80
2022-11-20T16:46:21.603Z,26.63
2022-11-20T16:48:55.571Z,26.45
2022-11-20T16:51:25.254Z,25.30
2022-11-20T16:53:55.841Z,31.83
2022-11-20T16:56:25.967Z,42.33
2022-11-20T16:58:56.598Z,39.58
2022-11-20T17:01:26.782Z,26.48
2022-11-20T17:03:59.051Z,27.02
2022-11-20T17:06:28.958Z,26.73
2022-11-20T17:08:58.140Z,29.50
2022-11-20T17:11:27.383Z,22.02
2022-11-20T17:14:00.716Z,24.23
2022-11-20T17:16:29.398Z,28.83
2022-11-20T17:19:02.482Z,24.27
2022-11-20T17:21:31.080Z,25.75
2022-11-20T17:24:02.399Z,26.92
2022-11-20T17:26:30.819Z,25.08
2022-11-20T17:29:01.477Z,24.38
2022-11-20T17:31:31.512Z,29.52
2022-11-20T17:34:00.475Z,25.92
2022-11-20T17:36:29.645Z,26.98
2022-11-20T17:38:57.965Z,23.60
2022-11-20T17:41:28.114Z,32.33
2022-11-20T17:43:57.801Z,28.40
2022-11-20T17:46:29.035Z,29.55
2022-11-20T17:48:57.800Z,31.10
2022-11-20T17:51:30.564Z,30.13
2022-11-20T17:54:00.722Z,27.98
2022-11-20T17:56:49.800Z,30.27
2022-11-20T17:59:18.618Z,24.60
2022-11-20T18:01:48.737Z,32.45
2022-11-20T18:04:17.821Z,29.70
2022-11-20T18:06:45.971Z,34.65
2022-11-20T18:09:14.427Z,29.63
2022-11-20T18:11:44.063Z,32.35
2022-11-20T18:14:29.328Z,31.23
2022-11-20T18:17:00.741Z,31.08
2022-11-20T18:19:32.901Z,26.65
2022-11-20T18:22:04.092Z,28.77
2022-11-20T18:24:32.685Z,27.27
2022-11-20T18:27:01.038Z,28.42
2022-11-20T18:29:31.269Z,29.58
2022-11-20T18:32:01.709Z,24.80
2022-11-20T18:34:30.130Z,23.63
2022-11-20T18:36:58.369Z,27.77
2022-11-20T18:39:26.650Z,29.02
2022-11-20T18:42:12.246Z,27.00
2022-11-20T18:44:52.790Z,34.50
2022-11-20T18:47:24.945Z,36.45
2022-11-20T18:49:54.713Z,26.02
2022-11-20T18:52:24.611Z,31.80
2022-11-20T18:54:52.882Z,27.48
2022-11-20T18:57:22.365Z,30.48
2022-11-20T18:59:50.471Z,28.30
2022-11-20T19:02:20.185Z,27.92
2022-11-20T19:04:50.333Z,28.38
2022-11-20T19:07:19.230Z,33.20
2022-11-20T19:09:50.854Z,26.90
2022-11-20T19:12:19.832Z,32.42
2022-11-20T19:14:48.157Z,24.83
2022-11-20T19:17:17.701Z,20.45
2022-11-20T19:19:46.735Z,19.25
2022-11-20T19:22:16.501Z,18.60
2022-11-20T19:24:44.679Z,16.23
2022-11-20T19:27:12.960Z,16.63
2022-11-20T19:29:41.337Z,12.45
2022-11-20T19:32:09.636Z,16.67
2022-11-20T19:34:38.016Z,14.40
2022-11-20T19:37:06.265Z,12.38
2022-11-20T19:39:37.270Z,14.88
2022-11-20T19:42:05.635Z,14.10
2022-11-20T19:44:34.151Z,11.00
2022-11-20T19:47:04.106Z,10.50
2022-11-20T19:49:32.460Z,18.98
2022-11-20T19:52:00.872Z,10.05
2022-11-20T19:54:29.252Z,8.20
2022-11-20T19:56:58.954Z,6.82
2022-11-20T19:59:27.212Z,10.52
2022-11-20T20:01:55.551Z,7.57
2022-11-20T20:04:23.808Z,9.60
2022-11-20T20:06:52.035Z,10.30
2022-11-20T20:09:20.614Z,14.45
2022-11-20T20:11:48.818Z,17.05
2022-11-20T20:14:20.151Z,16.98
2022-11-20T20:16:48.709Z,15.35
2022-11-20T20:19:17.761Z,10.98
2022-11-20T20:21:47.816Z,12.55
2022-11-20T20:24:16.140Z,14.68
2022-11-20T20:26:44.282Z,11.13
2022-11-20T20:29:12.559Z,9.38
2022-11-20T20:31:42.378Z,10.38
2022-11-20T20:34:10.654Z,7.05
2022-11-20T20:36:38.895Z,9.88
2022-11-20T20:39:07.110Z,10.70
2022-11-20T20:41:35.383Z,10.98
2022-11-20T20:44:20.860Z,21.90
2022-11-20T20:46:53.038Z,11.63
2022-11-20T20:49:21.820Z,11.68
2022-11-20T20:51:50.296Z,10.13
2022-11-20T20:54:18.700Z,9.07
2022-11-20T20:56:46.897Z,10.10
2022-11-20T20:59:15.223Z,8.85
2022-11-20T21:01:43.495Z,14.02
2022-11-20T21:04:13.240Z,8.38
2022-11-20T21:06:41.446Z,10.13
2022-11-20T21:09:09.727Z,9.00
2022-11-20T21:11:39.788Z,8.82
2022-11-20T21:14:07.953Z,8.75
2022-11-20T21:16:41.221Z,8.35
2022-11-20T21:19:09.648Z,8.07
2022-11-20T21:21:57.015Z,8.95
2022-11-20T21:24:25.529Z,9.75
2022-11-20T21:26:53.865Z,10.82
2022-11-20T21:29:22.504Z,9.73
2022-11-20T21:31:51.077Z,7.97
2022-11-20T21:34:19.562Z,8.68
2022-11-20T21:36:49.446Z,8.80
2022-11-20T21:39:18.510Z,4.65
2022-11-20T21:41:46.742Z,4.93
2022-11-20T21:44:30.648Z,5.20
2022-11-20T21:46:59.398Z,4.78
2022-11-20T21:49:27.599Z,7.70
2022-11-20T21:51:57.370Z,6.45
2022-11-20T21:54:25.952Z,7.10
2022-11-20T21:56:54.462Z,8.23
2022-11-20T21:59:23.019Z,12.25
2022-11-20T22:01:51.352Z,8.05
2022-11-20T22:04:20.106Z,12.48
2022-11-20T22:06:49.461Z,10.23
2022-11-20T22:09:19.244Z,8.48
2022-11-20T22:11:47.420Z,8.15
2022-11-20T22:14:20.453Z,11.52
2022-11-20T22:16:49.666Z,9.07
2022-11-20T22:19:19.084Z,8.68
2022-11-20T22:21:47.633Z,4.95
2022-11-20T22:24:18.933Z,8.77
2022-11-20T22:26:48.171Z,5.60
2022-11-20T22:29:17.787Z,6.82
2022-11-20T22:31:46.231Z,5.40
2022-11-20T22:34:15.279Z,7.57
2022-11-20T22:36:43.958Z,7.18
2022-11-20T22:39:12.189Z,8.52
2022-11-20T22:41:41.940Z,8.82
2022-11-20T22:44:10.155Z,8.48
2022-11-20T22:46:39.011Z,8.98
2022-11-20T22:49:09.621Z,9.20
2022-11-20T22:51:39.695Z,8.23
2022-11-20T22:54:09.863Z,5.95
2022-11-20T22:56:39.979Z,5.55
2022-11-20T22:59:09.981Z,9.27
2022-11-20T23:01:38.927Z,5.65
2022-11-20T23:04:09.120Z,5.13
2022-11-20T23:06:37.500Z,6.90
2022-11-20T23:09:07.259Z,7.05
2022-11-20T23:11:36.605Z,10.23
2022-11-20T23:14:06.598Z,6.20
2022-11-20T23:16:36.723Z,7.60
2022-11-20T23:19:07.323Z,17.70
2022-11-20T23:21:36.394Z,12.13
2022-11-20T23:24:05.530Z,8.18
2022-11-20T23:26:35.481Z,10.80
2022-11-20T23:29:04.036Z,11.30
2022-11-20T23:31:34.103Z,13.68
2022-11-20T23:34:04.615Z,11.23
2022-11-20T23:36:33.009Z,9.45
2022-11-20T23:39:01.512Z,12.90
2022-11-20T23:41:30.398Z,9.85
2022-11-20T23:43:58.668Z,9.70
2022-11-20T23:46:26.940Z,10.98
2022-11-20T23:48:55.103Z,11.38
2022-11-20T23:51:24.695Z,12.18
2022-11-20T23:53:52.822Z,13.75
2022-11-20T23:56:20.873Z,9.05
2022-11-20T23:58:49.153Z,10.32
